Big Bear Station Historical Data
Daily Summary for April 26, 2019 Units:  English    Metric   Both
Next Day »
Daily Weekly Monthly Yearly Custom
  High: Low: Average:
Temperature: 74.1 °F 39.6 °F 55.7 °F
Dew Point: 43.7 °F 28.8 °F 36.5 °F
Humidity: 85% 21% 54%
Wind Speed: 10.9mph 0.0mph 1.6mph
Wind Gust: -999.0mph - -
Wind- - WSW
Pressure: 23.59 in 23.52 in -
Precipitation: 0.00 in    
Historical Graphs
 
 
Tabular Data for April 26, 2019
Time Temperature Dew Point Pressure Wind Wind Speed Wind Gust Humidity Rainfall Rate (Hourly)
00:03 46.9 °F 33.7 °F 23.59 in Calm   -999.0 mph 60% 0.00 in
00:18 46.4 °F 34.1 °F 23.59 in Calm   -999.0 mph 62% 0.00 in
00:33 46.0 °F 35.7 °F 23.58 in Calm   -999.0 mph 67% 0.00 in
00:49 46.0 °F 37.1 °F 23.58 in Calm   -999.0 mph 71% 0.00 in
01:04 45.5 °F 37.7 °F 23.58 in Calm   -999.0 mph 74% 0.00 in
01:19 45.1 °F 38.0 °F 23.57 in Calm   -999.0 mph 76% 0.00 in
01:34 45.1 °F 38.7 °F 23.57 in Calm   -999.0 mph 78% 0.00 in
01:49 44.4 °F 38.3 °F 23.57 in Calm   -999.0 mph 79% 0.00 in
02:05 43.9 °F 38.1 °F 23.57 in Calm   -999.0 mph 80% 0.00 in
02:20 43.5 °F 37.7 °F 23.56 in Calm   -999.0 mph 80% 0.00 in
02:35 43.3 °F 36.6 °F 23.56 in Calm   -999.0 mph 77% 0.00 in
02:50 43.3 °F 36.9 °F 23.56 in Calm   -999.0 mph 78% 0.00 in
03:05 42.8 °F 37.7 °F 23.56 in Calm   -999.0 mph 82% 0.00 in
03:21 42.6 °F 37.8 °F 23.56 in Calm   -999.0 mph 83% 0.00 in
03:36 42.4 °F 37.9 °F 23.56 in Calm   -999.0 mph 84% 0.00 in
03:51 41.9 °F 37.4 °F 23.56 in Calm   -999.0 mph 84% 0.00 in
04:06 41.7 °F 36.6 °F 23.56 in Calm   -999.0 mph 82% 0.00 in
04:22 41.0 °F 34.3 °F 23.56 in Calm   -999.0 mph 77% 0.00 in
04:37 40.6 °F 33.6 °F 23.56 in Calm   -999.0 mph 76% 0.00 in
04:52 40.5 °F 32.9 °F 23.56 in Calm   -999.0 mph 74% 0.00 in
05:07 40.5 °F 32.5 °F 23.56 in Calm   -999.0 mph 73% 0.00 in
05:22 40.3 °F 33.7 °F 23.55 in Calm   -999.0 mph 77% 0.00 in
05:38 39.6 °F 33.0 °F 23.55 in Calm   -999.0 mph 77% 0.00 in
05:53 39.7 °F 33.4 °F 23.55 in Calm   -999.0 mph 78% 0.00 in
06:08 39.6 °F 33.6 °F 23.55 in Calm   -999.0 mph 79% 0.00 in
06:23 39.7 °F 34.0 °F 23.55 in Calm   -999.0 mph 80% 0.00 in
06:38 39.7 °F 34.0 °F 23.56 in Calm   -999.0 mph 80% 0.00 in
06:54 40.1 °F 34.4 °F 23.56 in Calm   -999.0 mph 80% 0.00 in
07:09 39.7 °F 34.3 °F 23.56 in Calm   -999.0 mph 81% 0.00 in
07:24 41.2 °F 35.8 °F 23.56 in Calm   -999.0 mph 81% 0.00 in
07:39 41.5 °F 36.4 °F 23.56 in Calm   -999.0 mph 82% 0.00 in
07:54 42.1 °F 37.9 °F 23.56 in Calm   -999.0 mph 85% 0.00 in
08:10 43.7 °F 39.2 °F 23.56 in Calm   -999.0 mph 84% 0.00 in
08:25 45.1 °F 39.6 °F 23.56 in Calm   -999.0 mph 81% 0.00 in
08:41 48.0 °F 37.9 °F 23.56 in Calm   -999.0 mph 68% 0.00 in
08:56 50.7 °F 41.3 °F 23.56 in Calm   -999.0 mph 70% 0.00 in
09:11 59.2 °F 35.5 °F 23.56 in West 4.7 mph -999.0 mph 41% 0.00 in
09:26 60.6 °F 32.8 °F 23.56 in WNW 6.8 mph -999.0 mph 35% 0.00 in
09:41 61.9 °F 33.9 °F 23.56 in NW 3.2 mph -999.0 mph 35% 0.00 in
09:57 62.6 °F 33.8 °F 23.56 in NNW 3.7 mph -999.0 mph 34% 0.00 in
10:12 63.7 °F 32.5 °F 23.56 in ESE 2.2 mph -999.0 mph 31% 0.00 in
10:27 64.6 °F 34.8 °F 23.56 in NNW 4.7 mph -999.0 mph 33% 0.00 in
10:43 65.8 °F 32.7 °F 23.57 in West 3.2 mph -999.0 mph 29% 0.00 in
10:58 68.0 °F 34.6 °F 23.57 in North 2.2 mph -999.0 mph 29% 0.00 in
11:13 70.2 °F 35.6 °F 23.57 in West 1.7 mph -999.0 mph 28% 0.00 in
11:29 70.7 °F 28.8 °F 23.56 in SSE 3.7 mph -999.0 mph 21% 0.00 in
11:44 71.2 °F 29.3 °F 23.56 in Calm   -999.0 mph 21% 0.00 in
11:59 71.2 °F 29.3 °F 23.56 in South 3.2 mph -999.0 mph 21% 0.00 in
12:14 71.4 °F 30.6 °F 23.56 in South 2.2 mph -999.0 mph 22% 0.00 in
12:29 72.3 °F 31.3 °F 23.56 in South 3.7 mph -999.0 mph 22% 0.00 in
12:45 72.3 °F 31.3 °F 23.56 in SE 5.3 mph -999.0 mph 22% 0.00 in
13:00 73.6 °F 32.4 °F 23.56 in West 2.7 mph -999.0 mph 22% 0.00 in
13:15 72.9 °F 32.9 °F 23.55 in NNW 2.7 mph -999.0 mph 23% 0.00 in
13:30 73.6 °F 34.6 °F 23.55 in ESE 7.3 mph -999.0 mph 24% 0.00 in
13:45 74.1 °F 35.0 °F 23.55 in NW 5.8 mph -999.0 mph 24% 0.00 in
14:01 72.5 °F 33.7 °F 23.55 in SE 1.7 mph -999.0 mph 24% 0.00 in
14:16 73.8 °F 33.7 °F 23.55 in NNE 2.7 mph -999.0 mph 23% 0.00 in
14:31 72.7 °F 32.8 °F 23.55 in ENE 5.8 mph -999.0 mph 23% 0.00 in
14:46 71.6 °F 33.9 °F 23.55 in WSW 4.7 mph -999.0 mph 25% 0.00 in
15:01 71.2 °F 37.3 °F 23.55 in West 5.3 mph -999.0 mph 29% 0.00 in
15:17 70.7 °F 34.1 °F 23.54 in ESE 1.1 mph -999.0 mph 26% 0.00 in
15:32 71.2 °F 39.0 °F 23.54 in NW 10.9 mph -999.0 mph 31% 0.00 in
15:47 70.7 °F 37.7 °F 23.53 in SW 1.7 mph -999.0 mph 30% 0.00 in
16:02 69.8 °F 37.8 °F 23.53 in NNW 4.7 mph -999.0 mph 31% 0.00 in
16:18 69.6 °F 34.1 °F 23.53 in NW 8.3 mph -999.0 mph 27% 0.00 in
16:33 69.4 °F 34.9 °F 23.53 in NW 3.2 mph -999.0 mph 28% 0.00 in
16:48 70.3 °F 34.7 °F 23.53 in Calm   -999.0 mph 27% 0.00 in
17:03 73.2 °F 37.2 °F 23.53 in NW 3.2 mph -999.0 mph 27% 0.00 in
17:19 72.5 °F 40.1 °F 23.53 in West 2.2 mph -999.0 mph 31% 0.00 in
17:34 70.3 °F 39.8 °F 23.53 in NW 5.3 mph -999.0 mph 33% 0.00 in
17:49 68.5 °F 39.8 °F 23.53 in NNW 4.2 mph -999.0 mph 35% 0.00 in
18:04 67.1 °F 40.0 °F 23.53 in NNW 6.3 mph -999.0 mph 37% 0.00 in
18:20 66.7 °F 42.9 °F 23.52 in NW 4.7 mph -999.0 mph 42% 0.00 in
18:36 62.8 °F 42.8 °F 23.53 in WNW 4.2 mph -999.0 mph 48% 0.00 in
18:51 60.1 °F 42.9 °F 23.52 in WNW 1.7 mph -999.0 mph 53% 0.00 in
19:06 57.9 °F 43.7 °F 23.52 in Calm   -999.0 mph 59% 0.00 in
19:21 56.5 °F 43.2 °F 23.53 in NNW 4.2 mph -999.0 mph 61% 0.00 in
19:36 55.6 °F 43.2 °F 23.53 in Calm   -999.0 mph 63% 0.00 in
19:52 54.9 °F 42.1 °F 23.53 in Calm   -999.0 mph 62% 0.00 in
20:07 54.0 °F 42.9 °F 23.53 in Calm   -999.0 mph 66% 0.00 in
20:22 53.2 °F 43.3 °F 23.53 in Calm   -999.0 mph 69% 0.00 in
20:37 53.1 °F 42.8 °F 23.54 in Calm   -999.0 mph 68% 0.00 in
20:53 52.9 °F 41.1 °F 23.54 in Calm   -999.0 mph 64% 0.00 in
21:08 52.3 °F 40.9 °F 23.54 in Calm   -999.0 mph 65% 0.00 in
21:23 52.3 °F 42.1 °F 23.54 in Calm   -999.0 mph 68% 0.00 in
21:38 51.4 °F 41.2 °F 23.55 in Calm   -999.0 mph 68% 0.00 in
21:53 51.4 °F 40.8 °F 23.55 in NE 1.1 mph -999.0 mph 67% 0.00 in
22:09 51.4 °F 38.8 °F 23.54 in Calm   -999.0 mph 62% 0.00 in
22:24 51.1 °F 38.1 °F 23.54 in Calm   -999.0 mph 61% 0.00 in
22:39 50.7 °F 36.9 °F 23.54 in Calm   -999.0 mph 59% 0.00 in
22:54 50.5 °F 35.4 °F 23.54 in Calm   -999.0 mph 56% 0.00 in
23:09 50.4 °F 34.8 °F 23.54 in Calm   -999.0 mph 55% 0.00 in
23:25 50.2 °F 34.7 °F 23.54 in Calm   -999.0 mph 55% 0.00 in
23:40 50.5 °F 34.5 °F 23.54 in Calm   -999.0 mph 54% 0.00 in
23:55 50.4 °F 33.4 °F 23.54 in Calm   -999.0 mph 52% 0.00 in
Big Bear CA Weather